sensor_id;sensor_type;location;lat;lon;timestamp;temperature;humidity
25192;DHT22;13143;50.924;5.320;2023-05-08T00:00:57;18.60;99.90
25192;DHT22;13143;50.924;5.320;2023-05-08T00:03:24;18.60;99.90
25192;DHT22;13143;50.924;5.320;2023-05-08T00:05:50;18.50;99.90
25192;DHT22;13143;50.924;5.320;2023-05-08T00:08:29;18.60;99.90
25192;DHT22;13143;50.924;5.320;2023-05-08T00:11:07;18.60;99.90
25192;DHT22;13143;50.924;5.320;2023-05-08T00:13:39;18.50;99.90
25192;DHT22;13143;50.924;5.320;2023-05-08T00:16:18;18.50;99.90
25192;DHT22;13143;50.924;5.320;2023-05-08T00:18:45;18.50;99.90
25192;DHT22;13143;50.924;5.320;2023-05-08T00:21:17;18.50;99.90
25192;DHT22;13143;50.924;5.320;2023-05-08T00:23:46;18.50;99.90
25192;DHT22;13143;50.924;5.320;2023-05-08T00:26:13;18.40;99.90
25192;DHT22;13143;50.924;5.320;2023-05-08T00:28:39;18.40;99.90
25192;DHT22;13143;50.924;5.320;2023-05-08T00:31:06;18.50;99.90
25192;DHT22;13143;50.924;5.320;2023-05-08T00:33:32;18.40;99.90
25192;DHT22;13143;50.924;5.320;2023-05-08T00:36:00;18.40;99.90
25192;DHT22;13143;50.924;5.320;2023-05-08T00:38:35;18.40;99.90
25192;DHT22;13143;50.924;5.320;2023-05-08T00:41:05;18.40;99.90
25192;DHT22;13143;50.924;5.320;2023-05-08T00:43:40;18.40;99.90
25192;DHT22;13143;50.924;5.320;2023-05-08T00:46:07;18.40;99.90
25192;DHT22;13143;50.924;5.320;2023-05-08T00:48:43;18.40;99.90
25192;DHT22;13143;50.924;5.320;2023-05-08T00:51:14;18.40;99.90
25192;DHT22;13143;50.924;5.320;2023-05-08T00:53:47;18.40;99.90
25192;DHT22;13143;50.924;5.320;2023-05-08T00:56:24;18.40;99.90
25192;DHT22;13143;50.924;5.320;2023-05-08T00:58:54;18.30;99.90
25192;DHT22;13143;50.924;5.320;2023-05-08T01:01:21;18.30;99.90
25192;DHT22;13143;50.924;5.320;2023-05-08T01:03:48;18.30;99.90
25192;DHT22;13143;50.924;5.320;2023-05-08T01:06:15;18.30;99.90
25192;DHT22;13143;50.924;5.320;2023-05-08T01:08:44;18.30;99.90
25192;DHT22;13143;50.924;5.320;2023-05-08T01:12:16;18.30;99.90
25192;DHT22;13143;50.924;5.320;2023-05-08T01:14:19;18.30;99.90
25192;DHT22;13143;50.924;5.320;2023-05-08T01:17:17;18.30;99.90
25192;DHT22;13143;50.924;5.320;2023-05-08T01:23:55;18.30;99.90
25192;DHT22;13143;50.924;5.320;2023-05-08T01:34:34;18.20;99.90
25192;DHT22;13143;50.924;5.320;2023-05-08T01:37:11;18.20;99.90
25192;DHT22;13143;50.924;5.320;2023-05-08T01:40:24;18.20;99.90
25192;DHT22;13143;50.924;5.320;2023-05-08T01:43:02;18.20;99.90
25192;DHT22;13143;50.924;5.320;2023-05-08T01:45:38;18.20;99.90
25192;DHT22;13143;50.924;5.320;2023-05-08T01:48:10;18.10;99.90
25192;DHT22;13143;50.924;5.320;2023-05-08T01:50:47;18.10;99.90
25192;DHT22;13143;50.924;5.320;2023-05-08T01:53:27;18.10;99.90
25192;DHT22;13143;50.924;5.320;2023-05-08T01:55:57;18.10;99.90
25192;DHT22;13143;50.924;5.320;2023-05-08T01:58:25;18.10;99.90
25192;DHT22;13143;50.924;5.320;2023-05-08T02:00:52;18.10;99.90
25192;DHT22;13143;50.924;5.320;2023-05-08T02:03:20;18.10;99.90
25192;DHT22;13143;50.924;5.320;2023-05-08T02:05:57;18.10;99.90
25192;DHT22;13143;50.924;5.320;2023-05-08T02:08:40;18.10;99.90
25192;DHT22;13143;50.924;5.320;2023-05-08T02:11:14;18.00;99.90
25192;DHT22;13143;50.924;5.320;2023-05-08T02:13:49;18.10;99.90
25192;DHT22;13143;50.924;5.320;2023-05-08T02:16:23;18.00;99.90
25192;DHT22;13143;50.924;5.320;2023-05-08T02:18:59;18.00;99.90
25192;DHT22;13143;50.924;5.320;2023-05-08T02:21:29;18.10;99.90
25192;DHT22;13143;50.924;5.320;2023-05-08T02:23:57;18.00;99.90
25192;DHT22;13143;50.924;5.320;2023-05-08T02:26:27;18.00;99.90
25192;DHT22;13143;50.924;5.320;2023-05-08T02:29:15;18.00;99.90
25192;DHT22;13143;50.924;5.320;2023-05-08T02:31:54;18.00;99.90
25192;DHT22;13143;50.924;5.320;2023-05-08T02:34:38;18.00;99.90
25192;DHT22;13143;50.924;5.320;2023-05-08T02:37:18;18.00;99.90
25192;DHT22;13143;50.924;5.320;2023-05-08T02:39:49;17.90;99.90
25192;DHT22;13143;50.924;5.320;2023-05-08T02:42:28;18.00;99.90
25192;DHT22;13143;50.924;5.320;2023-05-08T02:45:04;18.00;99.90
25192;DHT22;13143;50.924;5.320;2023-05-08T02:47:44;18.00;99.90
25192;DHT22;13143;50.924;5.320;2023-05-08T02:50:44;17.90;99.90
25192;DHT22;13143;50.924;5.320;2023-05-08T02:53:30;17.90;99.90
25192;DHT22;13143;50.924;5.320;2023-05-08T02:56:09;17.90;99.90
25192;DHT22;13143;50.924;5.320;2023-05-08T03:02:15;17.90;99.90
25192;DHT22;13143;50.924;5.320;2023-05-08T03:04:59;17.90;99.90
25192;DHT22;13143;50.924;5.320;2023-05-08T03:07:28;17.90;99.90
25192;DHT22;13143;50.924;5.320;2023-05-08T03:10:02;17.90;99.90
25192;DHT22;13143;50.924;5.320;2023-05-08T03:12:32;17.90;99.90
25192;DHT22;13143;50.924;5.320;2023-05-08T03:15:06;17.90;99.90
25192;DHT22;13143;50.924;5.320;2023-05-08T03:17:36;17.90;99.90
25192;DHT22;13143;50.924;5.320;2023-05-08T03:20:05;17.80;99.90
25192;DHT22;13143;50.924;5.320;2023-05-08T03:22:35;17.90;99.90
25192;DHT22;13143;50.924;5.320;2023-05-08T03:25:04;17.80;99.90
25192;DHT22;13143;50.924;5.320;2023-05-08T03:28:07;17.80;99.90
25192;DHT22;13143;50.924;5.320;2023-05-08T03:30:53;17.80;99.90
25192;DHT22;13143;50.924;5.320;2023-05-08T03:33:22;17.80;99.90
25192;DHT22;13143;50.924;5.320;2023-05-08T03:35:55;17.80;99.90
25192;DHT22;13143;50.924;5.320;2023-05-08T03:38:25;17.80;99.90
25192;DHT22;13143;50.924;5.320;2023-05-08T03:40:55;17.80;99.90
25192;DHT22;13143;50.924;5.320;2023-05-08T03:43:38;17.80;99.90
25192;DHT22;13143;50.924;5.320;2023-05-08T03:46:09;17.80;99.90
25192;DHT22;13143;50.924;5.320;2023-05-08T03:48:36;17.80;99.90
25192;DHT22;13143;50.924;5.320;2023-05-08T03:51:06;17.80;99.90
25192;DHT22;13143;50.924;5.320;2023-05-08T03:53:32;17.70;99.90
25192;DHT22;13143;50.924;5.320;2023-05-08T03:55:59;17.70;99.90
25192;DHT22;13143;50.924;5.320;2023-05-08T04:04:46;17.70;99.90
25192;DHT22;13143;50.924;5.320;2023-05-08T04:07:27;17.70;99.90
25192;DHT22;13143;50.924;5.320;2023-05-08T04:10:08;17.70;99.90
25192;DHT22;13143;50.924;5.320;2023-05-08T04:12:56;17.70;99.90
25192;DHT22;13143;50.924;5.320;2023-05-08T04:15:29;17.70;99.90
25192;DHT22;13143;50.924;5.320;2023-05-08T04:18:05;17.70;99.90
25192;DHT22;13143;50.924;5.320;2023-05-08T04:20:32;17.70;99.90
25192;DHT22;13143;50.924;5.320;2023-05-08T04:22:59;17.70;99.90
25192;DHT22;13143;50.924;5.320;2023-05-08T04:25:38;17.70;99.90
25192;DHT22;13143;50.924;5.320;2023-05-08T04:28:12;17.70;99.90
25192;DHT22;13143;50.924;5.320;2023-05-08T04:30:51;17.70;99.90
25192;DHT22;13143;50.924;5.320;2023-05-08T04:33:17;17.70;99.90
25192;DHT22;13143;50.924;5.320;2023-05-08T04:35:53;17.60;99.90
25192;DHT22;13143;50.924;5.320;2023-05-08T04:38:22;17.60;99.90
25192;DHT22;13143;50.924;5.320;2023-05-08T04:40:49;17.60;99.90
25192;DHT22;13143;50.924;5.320;2023-05-08T04:43:25;17.60;99.90
25192;DHT22;13143;50.924;5.320;2023-05-08T04:45:51;17.60;99.90
25192;DHT22;13143;50.924;5.320;2023-05-08T04:48:17;17.60;99.90
25192;DHT22;13143;50.924;5.320;2023-05-08T04:50:44;17.60;99.90
25192;DHT22;13143;50.924;5.320;2023-05-08T04:53:45;17.60;99.90
25192;DHT22;13143;50.924;5.320;2023-05-08T04:56:11;17.60;99.90
25192;DHT22;13143;50.924;5.320;2023-05-08T04:58:37;17.60;99.90
25192;DHT22;13143;50.924;5.320;2023-05-08T05:01:04;17.60;99.90
25192;DHT22;13143;50.924;5.320;2023-05-08T05:03:30;17.60;99.90
25192;DHT22;13143;50.924;5.320;2023-05-08T05:05:57;17.60;99.90
25192;DHT22;13143;50.924;5.320;2023-05-08T05:08:25;17.60;99.90
25192;DHT22;13143;50.924;5.320;2023-05-08T05:11:11;17.60;99.90
25192;DHT22;13143;50.924;5.320;2023-05-08T05:13:37;17.60;99.90
25192;DHT22;13143;50.924;5.320;2023-05-08T05:16:04;17.60;99.90
25192;DHT22;13143;50.924;5.320;2023-05-08T05:18:39;17.60;99.90
25192;DHT22;13143;50.924;5.320;2023-05-08T05:21:06;17.50;99.90
25192;DHT22;13143;50.924;5.320;2023-05-08T05:23:32;17.60;99.90
25192;DHT22;13143;50.924;5.320;2023-05-08T05:26:01;17.50;99.90
25192;DHT22;13143;50.924;5.320;2023-05-08T05:28:27;17.60;99.90
25192;DHT22;13143;50.924;5.320;2023-05-08T05:30:54;17.50;99.90
25192;DHT22;13143;50.924;5.320;2023-05-08T05:33:23;17.50;99.90
25192;DHT22;13143;50.924;5.320;2023-05-08T05:36:05;17.50;99.90
25192;DHT22;13143;50.924;5.320;2023-05-08T05:38:37;17.50;99.90
25192;DHT22;13143;50.924;5.320;2023-05-08T05:41:15;17.50;99.90
25192;DHT22;13143;50.924;5.320;2023-05-08T05:43:53;17.50;99.90
25192;DHT22;13143;50.924;5.320;2023-05-08T05:46:19;17.50;99.90
25192;DHT22;13143;50.924;5.320;2023-05-08T05:48:52;17.50;99.90
25192;DHT22;13143;50.924;5.320;2023-05-08T05:51:38;17.50;99.90
25192;DHT22;13143;50.924;5.320;2023-05-08T05:54:14;17.50;99.90
25192;DHT22;13143;50.924;5.320;2023-05-08T05:56:49;17.50;99.90
25192;DHT22;13143;50.924;5.320;2023-05-08T05:59:24;17.50;99.90
25192;DHT22;13143;50.924;5.320;2023-05-08T06:01:57;17.50;99.90
25192;DHT22;13143;50.924;5.320;2023-05-08T06:04:39;17.50;99.90
25192;DHT22;13143;50.924;5.320;2023-05-08T06:07:16;17.50;99.90
25192;DHT22;13143;50.924;5.320;2023-05-08T06:09:42;17.50;99.90
25192;DHT22;13143;50.924;5.320;2023-05-08T06:12:27;17.50;99.90
25192;DHT22;13143;50.924;5.320;2023-05-08T06:15:02;17.50;99.90
25192;DHT22;13143;50.924;5.320;2023-05-08T06:17:52;17.50;99.90
25192;DHT22;13143;50.924;5.320;2023-05-08T06:20:19;17.50;99.90
25192;DHT22;13143;50.924;5.320;2023-05-08T06:22:55;17.50;99.90
25192;DHT22;13143;50.924;5.320;2023-05-08T06:25:27;17.50;99.90
25192;DHT22;13143;50.924;5.320;2023-05-08T06:28:14;17.50;99.90
25192;DHT22;13143;50.924;5.320;2023-05-08T06:30:40;17.50;99.90
25192;DHT22;13143;50.924;5.320;2023-05-08T06:33:16;17.50;99.90
25192;DHT22;13143;50.924;5.320;2023-05-08T06:35:47;17.50;99.90
25192;DHT22;13143;50.924;5.320;2023-05-08T06:38:19;17.50;99.90
25192;DHT22;13143;50.924;5.320;2023-05-08T06:40:49;17.50;99.90
25192;DHT22;13143;50.924;5.320;2023-05-08T06:43:18;17.50;99.90
25192;DHT22;13143;50.924;5.320;2023-05-08T06:45:55;17.50;99.90
25192;DHT22;13143;50.924;5.320;2023-05-08T06:48:22;17.50;99.90
25192;DHT22;13143;50.924;5.320;2023-05-08T06:50:54;17.50;99.90
25192;DHT22;13143;50.924;5.320;2023-05-08T06:53:21;17.50;99.90
25192;DHT22;13143;50.924;5.320;2023-05-08T06:55:47;17.50;99.90
25192;DHT22;13143;50.924;5.320;2023-05-08T06:58:13;17.50;99.90
25192;DHT22;13143;50.924;5.320;2023-05-08T07:00:41;17.50;99.90
25192;DHT22;13143;50.924;5.320;2023-05-08T07:03:20;17.50;99.90
25192;DHT22;13143;50.924;5.320;2023-05-08T07:06:01;17.50;99.90
25192;DHT22;13143;50.924;5.320;2023-05-08T07:08:30;17.50;99.90
25192;DHT22;13143;50.924;5.320;2023-05-08T07:10:57;17.50;99.90
25192;DHT22;13143;50.924;5.320;2023-05-08T07:13:26;17.50;99.90
25192;DHT22;13143;50.924;5.320;2023-05-08T07:15:53;17.50;99.90
25192;DHT22;13143;50.924;5.320;2023-05-08T07:18:23;17.50;99.90
25192;DHT22;13143;50.924;5.320;2023-05-08T07:20:49;17.50;99.90
25192;DHT22;13143;50.924;5.320;2023-05-08T07:23:15;17.50;99.90
25192;DHT22;13143;50.924;5.320;2023-05-08T07:25:41;17.50;99.90
25192;DHT22;13143;50.924;5.320;2023-05-08T07:28:08;17.50;99.90
25192;DHT22;13143;50.924;5.320;2023-05-08T07:30:54;17.50;99.90
25192;DHT22;13143;50.924;5.320;2023-05-08T07:33:20;17.50;99.90
25192;DHT22;13143;50.924;5.320;2023-05-08T07:35:47;17.50;99.90
25192;DHT22;13143;50.924;5.320;2023-05-08T07:38:14;17.50;99.90
25192;DHT22;13143;50.924;5.320;2023-05-08T07:40:46;17.50;99.90
25192;DHT22;13143;50.924;5.320;2023-05-08T07:43:31;17.50;99.90
25192;DHT22;13143;50.924;5.320;2023-05-08T07:46:01;17.50;99.90
25192;DHT22;13143;50.924;5.320;2023-05-08T07:48:34;17.50;99.90
25192;DHT22;13143;50.924;5.320;2023-05-08T07:51:01;17.50;99.90
25192;DHT22;13143;50.924;5.320;2023-05-08T07:53:28;17.50;99.90
25192;DHT22;13143;50.924;5.320;2023-05-08T07:55:57;17.50;99.90
25192;DHT22;13143;50.924;5.320;2023-05-08T07:58:24;17.50;99.90
25192;DHT22;13143;50.924;5.320;2023-05-08T08:00:50;17.50;99.90
25192;DHT22;13143;50.924;5.320;2023-05-08T08:03:26;17.50;99.90
25192;DHT22;13143;50.924;5.320;2023-05-08T08:05:55;17.50;99.90
25192;DHT22;13143;50.924;5.320;2023-05-08T08:08:25;17.50;99.90
25192;DHT22;13143;50.924;5.320;2023-05-08T08:10:54;17.60;99.90
25192;DHT22;13143;50.924;5.320;2023-05-08T08:13:29;17.60;99.90
25192;DHT22;13143;50.924;5.320;2023-05-08T08:15:56;17.60;99.90
25192;DHT22;13143;50.924;5.320;2023-05-08T08:18:35;17.60;99.90
25192;DHT22;13143;50.924;5.320;2023-05-08T08:21:07;17.60;99.90
25192;DHT22;13143;50.924;5.320;2023-05-08T08:23:42;17.60;99.90
25192;DHT22;13143;50.924;5.320;2023-05-08T08:26:12;17.60;99.90
25192;DHT22;13143;50.924;5.320;2023-05-08T08:28:38;17.60;99.90
25192;DHT22;13143;50.924;5.320;2023-05-08T08:31:05;17.60;99.90
25192;DHT22;13143;50.924;5.320;2023-05-08T08:33:31;17.60;99.90
25192;DHT22;13143;50.924;5.320;2023-05-08T08:36:03;17.60;99.90
25192;DHT22;13143;50.924;5.320;2023-05-08T08:38:38;17.70;99.90
25192;DHT22;13143;50.924;5.320;2023-05-08T08:41:16;17.70;99.90
25192;DHT22;13143;50.924;5.320;2023-05-08T08:43:46;17.70;99.90
25192;DHT22;13143;50.924;5.320;2023-05-08T08:46:13;17.70;99.90
25192;DHT22;13143;50.924;5.320;2023-05-08T08:48:56;17.70;99.90
25192;DHT22;13143;50.924;5.320;2023-05-08T08:52:00;17.70;99.90
25192;DHT22;13143;50.924;5.320;2023-05-08T08:54:21;17.70;99.90
25192;DHT22;13143;50.924;5.320;2023-05-08T08:56:59;17.70;99.90
25192;DHT22;13143;50.924;5.320;2023-05-08T08:59:32;17.80;99.90
25192;DHT22;13143;50.924;5.320;2023-05-08T09:02:08;17.80;99.90
25192;DHT22;13143;50.924;5.320;2023-05-08T09:04:42;17.80;99.90
25192;DHT22;13143;50.924;5.320;2023-05-08T09:07:18;17.80;99.90
25192;DHT22;13143;50.924;5.320;2023-05-08T09:09:57;17.80;99.90
25192;DHT22;13143;50.924;5.320;2023-05-08T09:12:33;17.80;99.90
25192;DHT22;13143;50.924;5.320;2023-05-08T09:15:09;17.80;99.90
25192;DHT22;13143;50.924;5.320;2023-05-08T09:17:36;17.90;99.90
25192;DHT22;13143;50.924;5.320;2023-05-08T09:20:24;17.90;99.90
25192;DHT22;13143;50.924;5.320;2023-05-08T09:22:58;17.90;99.90
25192;DHT22;13143;50.924;5.320;2023-05-08T09:25:48;17.90;99.90
25192;DHT22;13143;50.924;5.320;2023-05-08T09:28:23;17.90;99.90
25192;DHT22;13143;50.924;5.320;2023-05-08T09:30:57;17.90;99.90
25192;DHT22;13143;50.924;5.320;2023-05-08T09:33:26;17.90;99.90
25192;DHT22;13143;50.924;5.320;2023-05-08T09:36:04;17.90;99.90
25192;DHT22;13143;50.924;5.320;2023-05-08T09:38:39;17.90;99.90
25192;DHT22;13143;50.924;5.320;2023-05-08T09:41:14;18.00;99.90
25192;DHT22;13143;50.924;5.320;2023-05-08T09:44:03;18.00;99.90
25192;DHT22;13143;50.924;5.320;2023-05-08T09:46:30;18.00;99.90
25192;DHT22;13143;50.924;5.320;2023-05-08T09:49:01;18.00;99.90
25192;DHT22;13143;50.924;5.320;2023-05-08T09:51:36;18.00;99.90
25192;DHT22;13143;50.924;5.320;2023-05-08T09:54:16;18.00;99.90
25192;DHT22;13143;50.924;5.320;2023-05-08T09:56:46;18.10;99.90
25192;DHT22;13143;50.924;5.320;2023-05-08T09:59:28;18.10;99.90
25192;DHT22;13143;50.924;5.320;2023-05-08T10:02:09;18.10;99.90
25192;DHT22;13143;50.924;5.320;2023-05-08T10:04:42;18.20;99.90
25192;DHT22;13143;50.924;5.320;2023-05-08T10:07:09;18.20;99.90
25192;DHT22;13143;50.924;5.320;2023-05-08T10:10:03;18.20;99.90
25192;DHT22;13143;50.924;5.320;2023-05-08T10:12:35;18.20;99.90
25192;DHT22;13143;50.924;5.320;2023-05-08T10:15:07;18.20;99.90
25192;DHT22;13143;50.924;5.320;2023-05-08T10:17:53;18.30;99.90
25192;DHT22;13143;50.924;5.320;2023-05-08T10:20:24;18.30;99.90
25192;DHT22;13143;50.924;5.320;2023-05-08T10:23:01;18.30;99.90
25192;DHT22;13143;50.924;5.320;2023-05-08T10:25:38;18.30;99.90
25192;DHT22;13143;50.924;5.320;2023-05-08T10:28:22;18.40;99.90
25192;DHT22;13143;50.924;5.320;2023-05-08T10:30:55;18.40;99.90
25192;DHT22;13143;50.924;5.320;2023-05-08T10:33:29;18.40;99.90
25192;DHT22;13143;50.924;5.320;2023-05-08T10:36:04;18.40;99.90
25192;DHT22;13143;50.924;5.320;2023-05-08T10:38:36;18.50;99.90
25192;DHT22;13143;50.924;5.320;2023-05-08T10:41:12;18.50;99.90
25192;DHT22;13143;50.924;5.320;2023-05-08T10:43:50;18.50;99.90
25192;DHT22;13143;50.924;5.320;2023-05-08T10:46:40;18.60;99.90
25192;DHT22;13143;50.924;5.320;2023-05-08T10:49:15;18.60;99.90
25192;DHT22;13143;50.924;5.320;2023-05-08T10:55:39;18.70;99.90
25192;DHT22;13143;50.924;5.320;2023-05-08T10:58:29;18.70;99.90
25192;DHT22;13143;50.924;5.320;2023-05-08T11:03:29;18.70;99.90
25192;DHT22;13143;50.924;5.320;2023-05-08T11:06:05;18.80;99.90
25192;DHT22;13143;50.924;5.320;2023-05-08T11:08:42;18.80;99.90
25192;DHT22;13143;50.924;5.320;2023-05-08T11:11:27;18.80;99.90
25192;DHT22;13143;50.924;5.320;2023-05-08T11:19:25;18.90;99.90
25192;DHT22;13143;50.924;5.320;2023-05-08T11:22:11;18.90;99.90
25192;DHT22;13143;50.924;5.320;2023-05-08T11:24:39;18.90;99.90
25192;DHT22;13143;50.924;5.320;2023-05-08T11:27:06;19.00;99.90
25192;DHT22;13143;50.924;5.320;2023-05-08T11:29:35;19.00;99.90
25192;DHT22;13143;50.924;5.320;2023-05-08T11:32:05;19.10;99.90
25192;DHT22;13143;50.924;5.320;2023-05-08T11:34:44;19.10;99.90
25192;DHT22;13143;50.924;5.320;2023-05-08T11:37:22;19.10;99.90
25192;DHT22;13143;50.924;5.320;2023-05-08T11:42:57;19.10;99.90
25192;DHT22;13143;50.924;5.320;2023-05-08T11:45:27;19.20;99.90
25192;DHT22;13143;50.924;5.320;2023-05-08T11:47:59;19.20;99.90
25192;DHT22;13143;50.924;5.320;2023-05-08T11:50:27;19.20;99.90
25192;DHT22;13143;50.924;5.320;2023-05-08T11:52:56;19.20;99.90
25192;DHT22;13143;50.924;5.320;2023-05-08T11:55:33;19.30;99.90
25192;DHT22;13143;50.924;5.320;2023-05-08T11:58:11;19.30;99.90
25192;DHT22;13143;50.924;5.320;2023-05-08T12:00:41;19.30;99.90
25192;DHT22;13143;50.924;5.320;2023-05-08T12:03:18;19.40;99.90
25192;DHT22;13143;50.924;5.320;2023-05-08T12:06:09;19.40;99.90
25192;DHT22;13143;50.924;5.320;2023-05-08T12:08:41;19.40;99.90
25192;DHT22;13143;50.924;5.320;2023-05-08T12:11:21;19.50;99.90
25192;DHT22;13143;50.924;5.320;2023-05-08T12:13:54;19.50;99.90
25192;DHT22;13143;50.924;5.320;2023-05-08T12:16:24;19.50;99.90
25192;DHT22;13143;50.924;5.320;2023-05-08T12:19:04;19.60;99.90
25192;DHT22;13143;50.924;5.320;2023-05-08T12:21:33;19.60;99.90
25192;DHT22;13143;50.924;5.320;2023-05-08T12:24:15;19.60;99.90
25192;DHT22;13143;50.924;5.320;2023-05-08T12:26:53;19.60;99.90
25192;DHT22;13143;50.924;5.320;2023-05-08T12:29:35;19.70;99.90
25192;DHT22;13143;50.924;5.320;2023-05-08T12:32:11;19.70;99.90
25192;DHT22;13143;50.924;5.320;2023-05-08T12:34:45;19.70;99.90
25192;DHT22;13143;50.924;5.320;2023-05-08T12:37:23;19.80;99.90
25192;DHT22;13143;50.924;5.320;2023-05-08T12:40:02;19.80;99.90
25192;DHT22;13143;50.924;5.320;2023-05-08T12:42:42;19.80;99.90
25192;DHT22;13143;50.924;5.320;2023-05-08T12:45:25;19.80;99.90
25192;DHT22;13143;50.924;5.320;2023-05-08T12:47:57;19.80;99.90
25192;DHT22;13143;50.924;5.320;2023-05-08T12:50:24;19.90;99.90
25192;DHT22;13143;50.924;5.320;2023-05-08T12:52:51;19.90;99.90
25192;DHT22;13143;50.924;5.320;2023-05-08T12:55:35;19.90;99.90
25192;DHT22;13143;50.924;5.320;2023-05-08T12:58:12;19.90;99.90
25192;DHT22;13143;50.924;5.320;2023-05-08T13:00:49;19.90;99.90
25192;DHT22;13143;50.924;5.320;2023-05-08T13:03:27;20.00;99.90
25192;DHT22;13143;50.924;5.320;2023-05-08T13:06:03;20.00;99.90
25192;DHT22;13143;50.924;5.320;2023-05-08T13:08:38;20.00;99.90
25192;DHT22;13143;50.924;5.320;2023-05-08T13:11:07;20.10;99.90
25192;DHT22;13143;50.924;5.320;2023-05-08T13:13:45;20.10;99.90
25192;DHT22;13143;50.924;5.320;2023-05-08T13:16:23;20.10;99.90
25192;DHT22;13143;50.924;5.320;2023-05-08T13:18:50;20.20;99.90
25192;DHT22;13143;50.924;5.320;2023-05-08T13:21:22;20.20;99.90
25192;DHT22;13143;50.924;5.320;2023-05-08T13:23:58;20.20;99.90
25192;DHT22;13143;50.924;5.320;2023-05-08T13:26:26;20.30;99.90
25192;DHT22;13143;50.924;5.320;2023-05-08T13:28:53;20.30;99.90
25192;DHT22;13143;50.924;5.320;2023-05-08T13:31:19;20.30;99.90
25192;DHT22;13143;50.924;5.320;2023-05-08T13:33:45;20.30;99.90
25192;DHT22;13143;50.924;5.320;2023-05-08T13:36:11;20.40;99.90
25192;DHT22;13143;50.924;5.320;2023-05-08T13:38:40;20.40;99.90
25192;DHT22;13143;50.924;5.320;2023-05-08T13:41:13;20.40;99.90
25192;DHT22;13143;50.924;5.320;2023-05-08T13:43:39;20.50;99.90
25192;DHT22;13143;50.924;5.320;2023-05-08T13:49:05;20.50;99.90
25192;DHT22;13143;50.924;5.320;2023-05-08T13:51:38;20.50;99.90
25192;DHT22;13143;50.924;5.320;2023-05-08T13:54:07;20.60;99.90
25192;DHT22;13143;50.924;5.320;2023-05-08T13:56:42;20.60;99.90
25192;DHT22;13143;50.924;5.320;2023-05-08T13:59:14;20.60;99.90
25192;DHT22;13143;50.924;5.320;2023-05-08T14:01:53;20.60;99.90
25192;DHT22;13143;50.924;5.320;2023-05-08T14:04:22;20.70;99.90
25192;DHT22;13143;50.924;5.320;2023-05-08T14:07:00;20.70;99.90
25192;DHT22;13143;50.924;5.320;2023-05-08T14:09:30;20.70;99.90
25192;DHT22;13143;50.924;5.320;2023-05-08T14:11:59;20.70;99.90
25192;DHT22;13143;50.924;5.320;2023-05-08T14:14:32;20.80;99.90
25192;DHT22;13143;50.924;5.320;2023-05-08T14:16:58;20.80;99.90
25192;DHT22;13143;50.924;5.320;2023-05-08T14:19:25;20.80;99.90
25192;DHT22;13143;50.924;5.320;2023-05-08T14:21:51;20.80;99.90
25192;DHT22;13143;50.924;5.320;2023-05-08T14:24:17;20.90;99.90
25192;DHT22;13143;50.924;5.320;2023-05-08T14:26:50;20.90;99.90
25192;DHT22;13143;50.924;5.320;2023-05-08T14:29:31;20.90;99.90
25192;DHT22;13143;50.924;5.320;2023-05-08T14:32:04;20.90;99.90
25192;DHT22;13143;50.924;5.320;2023-05-08T14:34:52;21.00;99.90
25192;DHT22;13143;50.924;5.320;2023-05-08T14:37:19;21.00;99.90
25192;DHT22;13143;50.924;5.320;2023-05-08T14:40:14;21.00;99.90
25192;DHT22;13143;50.924;5.320;2023-05-08T14:42:40;21.00;99.90
25192;DHT22;13143;50.924;5.320;2023-05-08T14:45:10;21.00;99.90
25192;DHT22;13143;50.924;5.320;2023-05-08T14:47:45;21.00;99.90
25192;DHT22;13143;50.924;5.320;2023-05-08T14:50:14;21.10;99.90
25192;DHT22;13143;50.924;5.320;2023-05-08T14:52:50;21.00;99.90
25192;DHT22;13143;50.924;5.320;2023-05-08T14:55:17;21.10;99.90
25192;DHT22;13143;50.924;5.320;2023-05-08T14:57:49;21.10;99.90
25192;DHT22;13143;50.924;5.320;2023-05-08T15:00:34;21.10;99.90
25192;DHT22;13143;50.924;5.320;2023-05-08T15:03:09;21.10;99.90
25192;DHT22;13143;50.924;5.320;2023-05-08T15:06:14;21.20;99.90
25192;DHT22;13143;50.924;5.320;2023-05-08T15:08:44;21.10;99.90
25192;DHT22;13143;50.924;5.320;2023-05-08T15:11:13;21.20;99.90
25192;DHT22;13143;50.924;5.320;2023-05-08T15:14:09;21.20;99.90
25192;DHT22;13143;50.924;5.320;2023-05-08T15:16:45;21.20;99.90
25192;DHT22;13143;50.924;5.320;2023-05-08T15:19:12;21.20;99.90
25192;DHT22;13143;50.924;5.320;2023-05-08T15:21:42;21.20;99.90
25192;DHT22;13143;50.924;5.320;2023-05-08T15:24:14;21.20;99.90
25192;DHT22;13143;50.924;5.320;2023-05-08T15:27:08;21.20;99.90
25192;DHT22;13143;50.924;5.320;2023-05-08T15:29:45;21.20;99.90
25192;DHT22;13143;50.924;5.320;2023-05-08T15:32:13;21.30;99.90
25192;DHT22;13143;50.924;5.320;2023-05-08T15:34:45;21.30;99.90
25192;DHT22;13143;50.924;5.320;2023-05-08T15:37:21;21.30;99.90
25192;DHT22;13143;50.924;5.320;2023-05-08T15:39:50;21.30;99.90
25192;DHT22;13143;50.924;5.320;2023-05-08T15:42:37;21.30;99.90
25192;DHT22;13143;50.924;5.320;2023-05-08T15:45:10;21.30;99.90
25192;DHT22;13143;50.924;5.320;2023-05-08T15:47:45;21.30;99.90
25192;DHT22;13143;50.924;5.320;2023-05-08T15:50:15;21.30;99.90
25192;DHT22;13143;50.924;5.320;2023-05-08T15:53:08;21.30;99.90
25192;DHT22;13143;50.924;5.320;2023-05-08T15:55:41;21.30;99.90
25192;DHT22;13143;50.924;5.320;2023-05-08T15:58:16;21.30;99.90
25192;DHT22;13143;50.924;5.320;2023-05-08T16:00:51;21.30;99.90
25192;DHT22;13143;50.924;5.320;2023-05-08T16:03:23;21.30;99.90
25192;DHT22;13143;50.924;5.320;2023-05-08T16:05:59;21.30;99.90
25192;DHT22;13143;50.924;5.320;2023-05-08T16:08:38;21.40;99.90
25192;DHT22;13143;50.924;5.320;2023-05-08T16:11:16;21.30;99.90
25192;DHT22;13143;50.924;5.320;2023-05-08T16:13:51;21.30;99.90
25192;DHT22;13143;50.924;5.320;2023-05-08T16:16:26;21.40;99.90
25192;DHT22;13143;50.924;5.320;2023-05-08T16:19:04;21.40;99.90
25192;DHT22;13143;50.924;5.320;2023-05-08T16:21:39;21.40;99.90
25192;DHT22;13143;50.924;5.320;2023-05-08T16:24:24;21.40;99.90
25192;DHT22;13143;50.924;5.320;2023-05-08T16:27:00;21.40;99.90
25192;DHT22;13143;50.924;5.320;2023-05-08T16:29:32;21.40;99.90
25192;DHT22;13143;50.924;5.320;2023-05-08T16:32:07;21.40;99.90
25192;DHT22;13143;50.924;5.320;2023-05-08T16:34:34;21.40;99.90
25192;DHT22;13143;50.924;5.320;2023-05-08T16:37:20;21.40;99.90
25192;DHT22;13143;50.924;5.320;2023-05-08T16:39:50;21.40;99.90
25192;DHT22;13143;50.924;5.320;2023-05-08T16:42:28;21.40;99.90
25192;DHT22;13143;50.924;5.320;2023-05-08T16:44:54;21.40;99.90
25192;DHT22;13143;50.924;5.320;2023-05-08T16:50:31;21.40;99.90
25192;DHT22;13143;50.924;5.320;2023-05-08T16:53:00;21.40;99.90
25192;DHT22;13143;50.924;5.320;2023-05-08T16:55:41;21.50;99.90